Time;durP1;ratioP1;P1;durP2;ratioP2;P2;SDS_P1;SDS_P2;PMS_P1;PMS_P2;Temp;Humidity;BMP_temperature;BMP_pressure;BME280_temperature;BME280_humidity;BME280_pressure;Samples;Min_cycle;Max_cycle;Signal;HPM_P1;HPM_P2
2021/08/22 00:01:34;;;;;;;2.20;2.00;;;;;;;;;;4983257;28;20420;-72
2021/08/22 00:04:00;;;;;;;2.70;1.77;;;;;;;;;;4976326;28;20034;-72
2021/08/22 00:06:26;;;;;;;6.15;2.08;;;;;;;;;;4986009;28;20477;-71
2021/08/22 00:08:52;;;;;;;3.53;2.00;;;;;;;;;;4986961;28;20033;-72
2021/08/22 00:11:18;;;;;;;3.35;1.95;;;;;;;;;;4988994;28;20052;-71
2021/08/22 00:13:44;;;;;;;2.40;1.90;;;;;;;;;;4984516;28;20548;-71
2021/08/22 00:16:10;;;;;;;2.55;2.10;;;;;;;;;;4985191;28;20030;-72
2021/08/22 00:18:35;;;;;;;2.85;2.03;;;;;;;;;;4985618;28;20041;-71
2021/08/22 00:21:01;;;;;;;2.55;2.10;;;;;;;;;;4991901;28;20034;-72
2021/08/22 00:23:28;;;;;;;4.97;1.90;;;;;;;;;;4990383;28;20493;-72
2021/08/22 00:25:54;;;;;;;2.33;2.03;;;;;;;;;;4989056;28;20113;-72
2021/08/22 00:28:20;;;;;;;3.17;2.30;;;;;;;;;;4986861;28;20406;-72
2021/08/22 00:30:47;;;;;;;6.18;2.40;;;;;;;;;;4987741;28;20060;-72
2021/08/22 00:33:12;;;;;;;4.28;2.20;;;;;;;;;;4975356;28;20031;-72
2021/08/22 00:35:38;;;;;;;2.72;2.10;;;;;;;;;;4982785;28;20034;-71
2021/08/22 00:38:04;;;;;;;3.03;2.25;;;;;;;;;;4979708;28;20180;-72
2021/08/22 00:40:30;;;;;;;2.40;1.95;;;;;;;;;;4987627;28;20030;-72
2021/08/22 00:42:56;;;;;;;2.92;2.10;;;;;;;;;;4989113;28;20117;-72
2021/08/22 00:45:22;;;;;;;6.07;2.00;;;;;;;;;;4985272;28;20033;-72
2021/08/22 00:47:48;;;;;;;3.58;2.17;;;;;;;;;;4983810;28;20054;-71
2021/08/22 00:50:15;;;;;;;3.00;2.08;;;;;;;;;;4989596;28;20026;-72
2021/08/22 00:52:41;;;;;;;3.85;2.05;;;;;;;;;;4989752;28;20033;-72
2021/08/22 00:55:07;;;;;;;3.17;2.22;;;;;;;;;;4986624;28;20053;-71
2021/08/22 00:57:34;;;;;;;5.25;2.30;;;;;;;;;;4990417;28;20026;-72
2021/08/22 01:00:01;;;;;;;3.22;2.05;;;;;;;;;;4986272;28;20030;-72
2021/08/22 01:02:30;;;;;;;3.08;1.92;;;;;;;;;;4982303;28;20034;-72
2021/08/22 01:05:22;;;;;;;3.10;2.30;;;;;;;;;;4978962;28;20026;-72
2021/08/22 01:07:49;;;;;;;2.95;2.15;;;;;;;;;;4982497;28;20456;-71
2021/08/22 01:10:17;;;;;;;4.13;2.22;;;;;;;;;;4985330;28;20029;-72
2021/08/22 01:12:48;;;;;;;4.72;1.95;;;;;;;;;;4989114;28;20037;-71
2021/08/22 01:15:14;;;;;;;;;;;;;;;;;;4981335;28;20030;-72
2021/08/22 01:17:41;;;;;;;4.35;2.10;;;;;;;;;;4984775;28;19913;-72
2021/08/22 01:20:13;;;;;;;2.47;2.03;;;;;;;;;;4980077;28;20434;-71
2021/08/22 01:22:40;;;;;;;4.68;2.30;;;;;;;;;;4984157;28;20735;-71
2021/08/22 01:25:08;;;;;;;2.45;1.92;;;;;;;;;;4987166;28;20573;-71
2021/08/22 01:27:36;;;;;;;3.88;2.20;;;;;;;;;;4985010;28;20045;-72
2021/08/22 01:30:05;;;;;;;2.58;2.03;;;;;;;;;;4985765;28;20397;-71
2021/08/22 01:32:38;;;;;;;2.35;1.80;;;;;;;;;;4986504;28;20030;-71
2021/08/22 01:35:05;;;;;;;6.20;2.17;;;;;;;;;;4979887;28;20033;-72
2021/08/22 01:37:31;;;;;;;6.10;2.13;;;;;;;;;;4985138;28;20030;-72
2021/08/22 01:39:58;;;;;;;2.13;1.90;;;;;;;;;;4988398;28;20022;-72
2021/08/22 01:42:24;;;;;;;2.90;1.98;;;;;;;;;;4975988;28;20062;-71
2021/08/22 01:44:50;;;;;;;2.45;2.10;;;;;;;;;;4989462;28;20033;-72
2021/08/22 01:47:16;;;;;;;2.30;1.80;;;;;;;;;;4988511;28;20026;-72
2021/08/22 01:49:43;;;;;;;3.95;2.15;;;;;;;;;;4987519;28;20029;-72
2021/08/22 01:52:09;;;;;;;3.90;1.85;;;;;;;;;;4976229;28;20101;-72
2021/08/22 01:54:35;;;;;;;2.40;2.08;;;;;;;;;;4979319;28;20381;-71
2021/08/22 01:57:01;;;;;;;2.83;2.10;;;;;;;;;;4985218;28;20034;-71
2021/08/22 01:59:27;;;;;;;3.65;2.17;;;;;;;;;;4986663;28;20136;-72
2021/08/22 02:01:53;;;;;;;4.22;2.38;;;;;;;;;;4984275;28;20389;-71
2021/08/22 02:04:24;;;;;;;3.13;2.13;;;;;;;;;;5007078;23;20941;-72
2021/08/22 02:06:53;;;;;;;4.30;2.03;;;;;;;;;;4999769;28;20073;-71
2021/08/22 02:09:27;;;;;;;2.60;2.03;;;;;;;;;;5001001;28;20068;-71
2021/08/22 02:12:01;;;;;;;3.13;2.05;;;;;;;;;;4988276;28;20665;-72
2021/08/22 02:14:27;;;;;;;3.78;2.20;;;;;;;;;;4976407;28;20038;-72
2021/08/22 02:16:55;;;;;;;2.55;2.10;;;;;;;;;;4994016;28;20018;-72
2021/08/22 02:19:21;;;;;;;2.42;1.77;;;;;;;;;;4988836;28;20058;-71
2021/08/22 02:21:47;;;;;;;4.53;2.22;;;;;;;;;;4984028;28;20748;-72
2021/08/22 02:24:13;;;;;;;4.75;1.98;;;;;;;;;;4994739;28;20125;-72
2021/08/22 02:26:39;;;;;;;6.10;2.20;;;;;;;;;;4988430;28;20034;-71
2021/08/22 02:29:05;;;;;;;3.88;2.17;;;;;;;;;;4979920;28;20039;-72
2021/08/22 02:31:31;;;;;;;4.93;1.92;;;;;;;;;;4998497;28;20026;-71
2021/08/22 02:33:58;;;;;;;4.00;2.10;;;;;;;;;;4998936;28;20022;-72
2021/08/22 02:36:24;;;;;;;5.50;2.05;;;;;;;;;;4988482;28;20030;-71
2021/08/22 02:38:50;;;;;;;3.75;2.38;;;;;;;;;;4983378;28;20790;-71
2021/08/22 02:41:16;;;;;;;4.32;2.03;;;;;;;;;;4987957;28;20037;-72
2021/08/22 02:43:42;;;;;;;4.10;2.40;;;;;;;;;;4988629;28;20121;-72
2021/08/22 02:46:08;;;;;;;3.03;2.28;;;;;;;;;;4992832;28;20106;-71
2021/08/22 02:48:34;;;;;;;2.10;1.80;;;;;;;;;;4989054;28;21752;-72
2021/08/22 02:51:00;;;;;;;5.85;2.20;;;;;;;;;;4980463;28;20144;-71
2021/08/22 02:53:26;;;;;;;3.05;1.92;;;;;;;;;;4993392;28;20510;-72
2021/08/22 02:55:52;;;;;;;4.00;2.10;;;;;;;;;;4988130;28;20030;-71
2021/08/22 02:58:19;;;;;;;3.13;2.15;;;;;;;;;;4995310;28;20076;-72
2021/08/22 03:00:45;;;;;;;2.78;2.00;;;;;;;;;;4990538;28;20026;-72
2021/08/22 03:03:11;;;;;;;6.68;2.30;;;;;;;;;;4992861;28;20053;-72
2021/08/22 03:05:37;;;;;;;3.38;2.10;;;;;;;;;;4986910;28;20026;-72
2021/08/22 03:08:03;;;;;;;2.75;1.80;;;;;;;;;;4992412;28;20357;-71
2021/08/22 03:10:29;;;;;;;2.78;2.08;;;;;;;;;;4996272;28;20077;-71
2021/08/22 03:12:55;;;;;;;2.80;2.05;;;;;;;;;;4992255;28;20077;-71
2021/08/22 03:15:21;;;;;;;6.50;2.83;;;;;;;;;;4993068;28;20029;-71
2021/08/22 03:17:47;;;;;;;4.65;2.10;;;;;;;;;;4997999;28;20023;-72
2021/08/22 03:20:13;;;;;;;2.60;2.05;;;;;;;;;;4992110;28;20058;-71
2021/08/22 03:22:41;;;;;;;4.07;2.50;;;;;;;;;;4993651;28;20242;-72
2021/08/22 03:25:07;;;;;;;4.60;2.22;;;;;;;;;;4991433;28;20038;-72
2021/08/22 03:27:33;;;;;;;4.05;2.33;;;;;;;;;;4990033;28;20039;-71
2021/08/22 03:29:59;;;;;;;3.80;2.10;;;;;;;;;;4985990;28;20037;-71
2021/08/22 03:32:25;;;;;;;5.93;2.30;;;;;;;;;;4995329;28;20030;-71
2021/08/22 03:34:51;;;;;;;4.13;2.38;;;;;;;;;;4991109;28;20058;-72
2021/08/22 03:37:17;;;;;;;2.85;1.80;;;;;;;;;;4993712;28;20077;-71
2021/08/22 03:39:43;;;;;;;2.10;1.90;;;;;;;;;;4994310;28;20139;-71
2021/08/22 03:42:09;;;;;;;2.20;2.00;;;;;;;;;;4992318;28;20041;-71
2021/08/22 03:44:35;;;;;;;2.60;2.08;;;;;;;;;;4990518;28;20041;-71
2021/08/22 03:47:01;;;;;;;3.45;2.10;;;;;;;;;;4991676;28;20038;-71
2021/08/22 03:49:27;;;;;;;2.45;2.10;;;;;;;;;;4987710;28;20526;-71
2021/08/22 03:51:53;;;;;;;2.83;2.13;;;;;;;;;;4991490;28;20022;-72
2021/08/22 03:54:18;;;;;;;3.78;2.03;;;;;;;;;;4996157;28;20399;-72
2021/08/22 03:56:44;;;;;;;2.45;2.08;;;;;;;;;;4986836;28;20030;-71
2021/08/22 03:59:10;;;;;;;2.78;2.30;;;;;;;;;;4991689;28;20023;-72
2021/08/22 04:01:36;;;;;;;3.88;2.03;;;;;;;;;;4997315;28;20041;-71
2021/08/22 04:04:03;;;;;;;2.80;1.98;;;;;;;;;;4990211;28;20134;-71
2021/08/22 04:06:30;;;;;;;5.10;2.47;;;;;;;;;;4990249;28;20061;-71
2021/08/22 04:08:56;;;;;;;6.82;2.60;;;;;;;;;;4993953;28;20507;-72
2021/08/22 04:11:22;;;;;;;2.95;1.90;;;;;;;;;;5002193;28;20072;-71
2021/08/22 04:13:48;;;;;;;3.63;2.33;;;;;;;;;;4991926;28;20018;-72
2021/08/22 04:16:14;;;;;;;3.47;2.10;;;;;;;;;;4990604;28;20053;-71
2021/08/22 04:18:40;;;;;;;5.57;2.30;;;;;;;;;;4993221;28;20026;-71
2021/08/22 04:21:06;;;;;;;3.25;2.30;;;;;;;;;;4992396;28;20033;-71
2021/08/22 04:23:32;;;;;;;2.70;2.20;;;;;;;;;;4989054;28;20018;-72
2021/08/22 04:25:58;;;;;;;4.07;2.20;;;;;;;;;;4985821;28;20142;-71
2021/08/22 04:28:25;;;;;;;5.05;2.50;;;;;;;;;;4989607;28;20053;-71
2021/08/22 04:30:50;;;;;;;3.17;2.40;;;;;;;;;;4996844;28;20034;-71
2021/08/22 04:33:16;;;;;;;3.80;2.25;;;;;;;;;;4986777;28;20456;-72
2021/08/22 04:35:42;;;;;;;2.47;2.00;;;;;;;;;;4992190;28;20034;-71
2021/08/22 04:38:08;;;;;;;2.22;2.00;;;;;;;;;;4990707;28;20084;-71
2021/08/22 04:40:37;;;;;;;5.20;2.70;;;;;;;;;;4989887;28;20025;-71
2021/08/22 04:43:02;;;;;;;4.78;2.60;;;;;;;;;;4999657;28;20117;-72
2021/08/22 04:45:28;;;;;;;4.22;2.50;;;;;;;;;;4995796;28;20725;-72
2021/08/22 04:47:54;;;;;;;3.45;2.60;;;;;;;;;;4984973;28;20030;-72
2021/08/22 04:50:20;;;;;;;3.05;2.50;;;;;;;;;;4993281;28;20069;-72
2021/08/22 04:52:46;;;;;;;4.43;2.42;;;;;;;;;;4993062;28;20088;-72
2021/08/22 04:55:12;;;;;;;3.50;2.58;;;;;;;;;;4990079;28;20030;-71
2021/08/22 04:57:38;;;;;;;3.00;2.35;;;;;;;;;;4988293;28;20388;-72
2021/08/22 05:00:04;;;;;;;4.03;2.25;;;;;;;;;;4991539;28;20022;-71
2021/08/22 05:02:30;;;;;;;2.40;2.20;;;;;;;;;;4992574;28;20360;-71
2021/08/22 05:04:56;;;;;;;2.75;2.17;;;;;;;;;;4998299;28;20112;-72
2021/08/22 05:07:22;;;;;;;5.65;2.58;;;;;;;;;;4990904;28;20388;-72
2021/08/22 05:09:48;;;;;;;3.03;2.33;;;;;;;;;;4984196;28;20084;-71
2021/08/22 05:12:14;;;;;;;4.47;2.30;;;;;;;;;;4986222;28;20038;-72
2021/08/22 05:14:40;;;;;;;5.80;2.13;;;;;;;;;;4989827;28;20103;-72
2021/08/22 05:17:06;;;;;;;3.67;2.40;;;;;;;;;;4998841;28;20498;-72
2021/08/22 05:19:33;;;;;;;3.58;2.35;;;;;;;;;;4985890;28;20027;-71
2021/08/22 05:21:59;;;;;;;3.47;2.30;;;;;;;;;;4992899;28;20029;-72
2021/08/22 05:24:25;;;;;;;2.83;1.80;;;;;;;;;;4989215;28;20452;-72
2021/08/22 05:26:51;;;;;;;4.75;1.95;;;;;;;;;;4983920;28;20111;-72
2021/08/22 05:29:17;;;;;;;2.35;2.00;;;;;;;;;;4978816;28;20038;-72
2021/08/22 05:31:43;;;;;;;3.30;2.15;;;;;;;;;;4985445;28;20176;-72
2021/08/22 05:34:08;;;;;;;3.65;2.03;;;;;;;;;;4999474;28;20399;-72
2021/08/22 05:36:35;;;;;;;2.35;1.98;;;;;;;;;;4981838;28;20026;-73
2021/08/22 05:39:02;;;;;;;3.83;2.00;;;;;;;;;;4979458;28;20034;-72
2021/08/22 05:41:28;;;;;;;2.35;1.90;;;;;;;;;;4983922;28;20030;-72
2021/08/22 05:43:54;;;;;;;2.25;1.90;;;;;;;;;;4984173;28;20093;-72
2021/08/22 05:46:20;;;;;;;1.90;1.65;;;;;;;;;;4990875;28;20535;-72
2021/08/22 05:48:45;;;;;;;2.65;1.65;;;;;;;;;;4988239;28;20030;-72
2021/08/22 05:51:15;;;;;;;2.70;2.03;;;;;;;;;;4989031;28;20507;-72
2021/08/22 05:53:41;;;;;;;4.80;1.75;;;;;;;;;;4982913;28;20022;-72
2021/08/22 05:56:08;;;;;;;1.90;1.67;;;;;;;;;;4990922;28;20484;-72
2021/08/22 05:58:34;;;;;;;2.30;1.60;;;;;;;;;;4988776;28;20100;-72
2021/08/22 06:01:00;;;;;;;2.10;1.70;;;;;;;;;;4989002;28;20480;-72
2021/08/22 06:03:26;;;;;;;3.72;1.90;;;;;;;;;;4994781;28;20096;-72
2021/08/22 06:05:53;;;;;;;3.72;1.80;;;;;;;;;;4989715;28;20066;-72
2021/08/22 06:08:19;;;;;;;2.10;1.70;;;;;;;;;;4997557;28;20033;-72
2021/08/22 06:10:45;;;;;;;1.90;1.63;;;;;;;;;;4996600;28;20163;-72
2021/08/22 06:13:11;;;;;;;6.10;1.60;;;;;;;;;;4986564;28;20379;-72
2021/08/22 06:15:37;;;;;;;2.25;1.67;;;;;;;;;;4971953;28;20484;-72
2021/08/22 06:18:08;;;;;;;4.75;1.55;;;;;;;;;;4990552;28;20487;-72
2021/08/22 06:20:34;;;;;;;2.30;1.83;;;;;;;;;;4986397;28;20413;-72
2021/08/22 06:23:00;;;;;;;2.53;1.80;;;;;;;;;;4986460;28;20038;-72
2021/08/22 06:25:26;;;;;;;2.90;1.67;;;;;;;;;;4994904;28;20032;-72
2021/08/22 06:27:52;;;;;;;1.65;1.55;;;;;;;;;;4990124;28;20463;-72
2021/08/22 06:30:18;;;;;;;3.67;1.70;;;;;;;;;;4986086;28;20419;-71
2021/08/22 06:32:44;;;;;;;2.17;1.70;;;;;;;;;;4991242;28;20408;-72
2021/08/22 06:35:10;;;;;;;3.85;1.55;;;;;;;;;;4992174;28;20064;-72
2021/08/22 06:37:38;;;;;;;2.50;1.45;;;;;;;;;;4992719;28;20093;-72
2021/08/22 06:40:05;;;;;;;1.48;1.23;;;;;;;;;;4987043;28;20089;-72
2021/08/22 06:42:31;;;;;;;1.88;1.50;;;;;;;;;;4987271;28;20130;-72
2021/08/22 06:44:57;;;;;;;3.85;1.63;;;;;;;;;;4987923;28;20022;-72
2021/08/22 06:47:23;;;;;;;1.80;1.48;;;;;;;;;;4989462;28;20036;-72
2021/08/22 06:49:50;;;;;;;1.83;1.38;;;;;;;;;;4986027;28;20026;-72
2021/08/22 06:52:16;;;;;;;2.47;1.60;;;;;;;;;;4988527;28;20041;-72
2021/08/22 06:54:42;;;;;;;3.33;1.63;;;;;;;;;;4992039;28;20034;-73
2021/08/22 06:57:08;;;;;;;1.80;1.58;;;;;;;;;;4987161;28;20014;-72
2021/08/22 06:59:34;;;;;;;2.25;1.38;;;;;;;;;;4988242;28;20029;-72
2021/08/22 07:02:00;;;;;;;1.85;1.45;;;;;;;;;;4991913;28;20058;-72
2021/08/22 07:04:26;;;;;;;3.00;1.58;;;;;;;;;;4987993;28;20420;-72
2021/08/22 07:06:52;;;;;;;1.70;1.45;;;;;;;;;;4988513;28;20518;-72
2021/08/22 07:09:18;;;;;;;1.33;1.17;;;;;;;;;;4981875;28;20682;-72
2021/08/22 07:11:44;;;;;;;2.30;1.27;;;;;;;;;;4992308;28;20480;-72
2021/08/22 07:14:10;;;;;;;2.72;1.08;;;;;;;;;;4989236;28;20167;-72
2021/08/22 07:16:38;;;;;;;2.20;1.42;;;;;;;;;;4984705;28;20030;-72
2021/08/22 07:19:04;;;;;;;3.33;1.20;;;;;;;;;;4995106;28;20046;-73
2021/08/22 07:21:29;;;;;;;1.88;1.20;;;;;;;;;;4986584;28;20123;-72
2021/08/22 07:23:55;;;;;;;2.10;1.30;;;;;;;;;;4983913;28;20498;-72
2021/08/22 07:26:21;;;;;;;1.48;1.38;;;;;;;;;;4988853;28;20034;-73
2021/08/22 07:28:47;;;;;;;3.47;1.40;;;;;;;;;;4987630;28;20077;-72
2021/08/22 07:31:15;;;;;;;1.42;1.17;;;;;;;;;;4986708;28;20134;-73
2021/08/22 07:33:41;;;;;;;2.60;1.63;;;;;;;;;;4984099;28;20494;-72
2021/08/22 07:36:07;;;;;;;2.08;1.38;;;;;;;;;;4975799;28;20034;-72
2021/08/22 07:38:33;;;;;;;1.70;1.50;;;;;;;;;;4986871;28;20060;-72
2021/08/22 07:40:58;;;;;;;1.65;1.33;;;;;;;;;;4984193;28;20030;-72
2021/08/22 07:43:24;;;;;;;1.98;1.50;;;;;;;;;;4987708;28;20100;-72
2021/08/22 07:45:51;;;;;;;1.60;1.50;;;;;;;;;;4984361;28;20034;-73
2021/08/22 07:48:17;;;;;;;1.90;1.50;;;;;;;;;;4987233;28;20022;-72
2021/08/22 07:50:43;;;;;;;1.92;1.60;;;;;;;;;;4986841;28;20122;-71
2021/08/22 07:53:09;;;;;;;3.40;1.50;;;;;;;;;;4988750;28;20114;-71
2021/08/22 07:55:35;;;;;;;3.90;1.58;;;;;;;;;;4982561;28;20210;-71
2021/08/22 07:58:01;;;;;;;2.55;1.60;;;;;;;;;;4979824;28;20125;-76
2021/08/22 08:00:27;;;;;;;4.43;1.73;;;;;;;;;;4987274;28;20740;-72
2021/08/22 08:02:53;;;;;;;4.32;1.70;;;;;;;;;;4993519;28;20499;-72
2021/08/22 08:05:22;;;;;;;3.15;1.40;;;;;;;;;;4986144;28;20160;-73
2021/08/22 08:07:48;;;;;;;3.42;1.70;;;;;;;;;;4995307;28;20388;-73
2021/08/22 08:10:14;;;;;;;2.03;1.60;;;;;;;;;;4991771;28;20031;-72
2021/08/22 08:12:40;;;;;;;2.60;1.90;;;;;;;;;;4987730;28;20065;-72
2021/08/22 08:15:06;;;;;;;2.13;1.58;;;;;;;;;;4989434;28;20925;-72
2021/08/22 08:17:32;;;;;;;2.40;1.67;;;;;;;;;;4987661;28;20396;-72
2021/08/22 08:19:58;;;;;;;1.40;1.30;;;;;;;;;;4998660;28;20042;-74
2021/08/22 08:22:24;;;;;;;1.70;1.48;;;;;;;;;;4992504;28;20415;-72
2021/08/22 08:24:50;;;;;;;2.67;1.60;;;;;;;;;;4991906;28;20026;-72
2021/08/22 08:27:16;;;;;;;3.40;1.70;;;;;;;;;;4993203;28;20026;-72
2021/08/22 08:29:42;;;;;;;2.08;1.63;;;;;;;;;;4989363;28;20166;-72
2021/08/22 08:32:08;;;;;;;2.17;1.70;;;;;;;;;;4990757;28;20084;-72
2021/08/22 08:34:34;;;;;;;2.65;1.55;;;;;;;;;;4988428;28;20054;-73
2021/08/22 08:37:00;;;;;;;2.17;1.75;;;;;;;;;;4990169;28;20116;-74
2021/08/22 08:39:26;;;;;;;3.45;1.90;;;;;;;;;;4988669;28;20022;-72
2021/08/22 08:41:52;;;;;;;4.25;2.03;;;;;;;;;;4984151;28;20088;-72
2021/08/22 08:44:18;;;;;;;6.45;1.88;;;;;;;;;;4989887;28;20408;-72
2021/08/22 08:46:51;;;;;;;2.50;1.65;;;;;;;;;;4990347;28;20034;-72
2021/08/22 08:49:24;;;;;;;2.00;1.80;;;;;;;;;;4989779;28;20022;-70
2021/08/22 08:51:55;;;;;;;2.97;1.90;;;;;;;;;;4987138;28;21832;-70
2021/08/22 08:54:29;;;;;;;3.20;1.98;;;;;;;;;;4988798;28;20496;-70
2021/08/22 08:56:55;;;;;;;2.95;2.00;;;;;;;;;;4983607;28;20031;-69
2021/08/22 08:59:21;;;;;;;3.40;1.83;;;;;;;;;;4988777;28;20043;-71
2021/08/22 09:01:47;;;;;;;6.65;1.95;;;;;;;;;;4982978;28;20050;-73
2021/08/22 09:04:14;;;;;;;2.05;1.65;;;;;;;;;;4978851;28;20129;-73
2021/08/22 09:06:48;;;;;;;2.58;1.90;;;;;;;;;;4990676;28;20038;-73
2021/08/22 09:09:33;;;;;;;4.80;2.00;;;;;;;;;;4987327;28;20049;-73
2021/08/22 09:12:19;;;;;;;2.22;1.80;;;;;;;;;;4989787;28;20030;-72
2021/08/22 09:15:04;;;;;;;3.10;1.98;;;;;;;;;;4993275;28;20552;-73
2021/08/22 09:17:48;;;;;;;4.03;2.25;;;;;;;;;;4988414;28;20065;-73
2021/08/22 09:20:29;;;;;;;2.33;1.73;;;;;;;;;;4989373;28;20019;-73
2021/08/22 09:23:16;;;;;;;4.95;2.00;;;;;;;;;;4988286;28;20118;-73
2021/08/22 09:26:01;;;;;;;3.85;2.45;;;;;;;;;;4948574;28;20026;-72
2021/08/22 09:28:46;;;;;;;2.83;1.80;;;;;;;;;;4985634;28;20026;-72
2021/08/22 09:31:41;;;;;;;3.10;2.13;;;;;;;;;;4989070;28;20031;-73
2021/08/22 09:34:26;;;;;;;2.88;2.00;;;;;;;;;;4986506;28;20026;-73
2021/08/22 09:37:18;;;;;;;2.90;2.40;;;;;;;;;;4983541;28;20092;-73
2021/08/22 09:40:07;;;;;;;2.28;1.95;;;;;;;;;;4987386;28;20030;-74
2021/08/22 09:42:47;;;;;;;4.05;2.50;;;;;;;;;;4985701;28;20069;-75
2021/08/22 09:45:34;;;;;;;5.43;2.22;;;;;;;;;;4985836;28;20593;-73
2021/08/22 09:48:19;;;;;;;3.42;2.03;;;;;;;;;;4982316;28;20800;-73
2021/08/22 09:51:04;;;;;;;3.13;2.10;;;;;;;;;;4977919;28;20057;-73
2021/08/22 09:53:48;;;;;;;3.75;2.05;;;;;;;;;;4989639;28;20033;-73
2021/08/22 09:56:31;;;;;;;4.95;2.08;;;;;;;;;;4987328;28;20038;-73
2021/08/22 09:59:16;;;;;;;2.97;2.22;;;;;;;;;;4984728;28;20030;-72
2021/08/22 10:01:42;;;;;;;3.80;2.10;;;;;;;;;;4979846;28;20062;-72
2021/08/22 10:04:14;;;;;;;4.80;1.92;;;;;;;;;;4981761;28;20103;-72
2021/08/22 10:07:01;;;;;;;4.95;2.38;;;;;;;;;;4986406;28;20053;-73
2021/08/22 10:09:46;;;;;;;3.50;2.30;;;;;;;;;;4985012;28;20084;-71
2021/08/22 10:12:11;;;;;;;2.53;2.20;;;;;;;;;;4981284;28;20116;-73
2021/08/22 10:14:39;;;;;;;2.72;2.15;;;;;;;;;;4986936;28;20057;-71
2021/08/22 10:17:06;;;;;;;2.67;1.98;;;;;;;;;;4985179;28;20030;-71
2021/08/22 10:19:32;;;;;;;2.75;1.83;;;;;;;;;;4987046;28;20022;-71
2021/08/22 10:22:09;;;;;;;7.68;4.50;;;;;;;;;;4982399;28;20566;-71
2021/08/22 10:24:43;;;;;;;7.32;4.18;;;;;;;;;;4987411;28;20031;-70
2021/08/22 10:27:11;;;;;;;5.68;2.47;;;;;;;;;;4986615;28;20083;-72
2021/08/22 10:29:49;;;;;;;3.70;2.45;;;;;;;;;;4984491;28;20492;-72
2021/08/22 10:32:16;;;;;;;6.50;2.80;;;;;;;;;;4987871;28;20237;-74
2021/08/22 10:34:43;;;;;;;5.60;3.30;;;;;;;;;;4992085;28;20022;-72
2021/08/22 10:37:30;;;;;;;2.60;2.35;;;;;;;;;;4985342;28;20031;-73
2021/08/22 10:39:57;;;;;;;5.32;2.63;;;;;;;;;;4980090;28;20117;-71
2021/08/22 10:42:26;;;;;;;6.88;3.25;;;;;;;;;;4975241;28;20119;-71
2021/08/22 10:44:52;;;;;;;5.15;3.00;;;;;;;;;;4971052;28;20046;-71
2021/08/22 10:47:21;;;;;;;3.83;2.30;;;;;;;;;;4988340;28;20026;-71
2021/08/22 10:49:53;;;;;;;3.85;2.70;;;;;;;;;;4988503;28;20065;-71
2021/08/22 10:52:19;;;;;;;6.40;2.00;;;;;;;;;;4989735;28;20360;-71
2021/08/22 10:54:45;;;;;;;4.82;2.25;;;;;;;;;;4985271;28;20488;-71
2021/08/22 10:57:30;;;;;;;2.60;2.30;;;;;;;;;;4992324;28;20038;-72
2021/08/22 11:00:18;;;;;;;3.50;2.40;;;;;;;;;;4986660;28;20117;-71
2021/08/22 11:02:44;;;;;;;3.35;2.60;;;;;;;;;;4994147;28;20058;-72
2021/08/22 11:05:14;;;;;;;4.10;2.60;;;;;;;;;;4973990;28;20552;-72
2021/08/22 11:07:39;;;;;;;3.40;2.47;;;;;;;;;;4989200;28;20085;-71
2021/08/22 11:10:11;;;;;;;3.63;2.70;;;;;;;;;;4978363;28;20046;-71
2021/08/22 11:12:38;;;;;;;3.15;2.80;;;;;;;;;;4986812;28;20521;-73
2021/08/22 11:15:04;;;;;;;3.38;2.42;;;;;;;;;;4988967;28;20041;-71
2021/08/22 11:17:31;;;;;;;3.92;2.47;;;;;;;;;;4979362;28;20030;-71
2021/08/22 11:20:13;;;;;;;2.85;2.38;;;;;;;;;;4985219;28;20498;-71
2021/08/22 11:22:38;;;;;;;3.60;2.50;;;;;;;;;;4984953;28;20029;-71
2021/08/22 11:25:05;;;;;;;3.65;2.53;;;;;;;;;;4984237;28;20018;-72
2021/08/22 11:27:31;;;;;;;5.78;2.90;;;;;;;;;;4976585;28;20077;-71
2021/08/22 11:30:05;;;;;;;6.75;2.83;;;;;;;;;;4988828;28;20022;-72
2021/08/22 11:32:31;;;;;;;3.67;2.40;;;;;;;;;;4989233;28;20518;-72
2021/08/22 11:35:14;;;;;;;4.20;2.90;;;;;;;;;;4990705;28;20026;-72
2021/08/22 11:37:40;;;;;;;7.07;3.50;;;;;;;;;;4982745;28;20030;-72
2021/08/22 11:40:07;;;;;;;11.15;4.97;;;;;;;;;;4992891;28;20030;-71
2021/08/22 11:42:33;;;;;;;8.65;4.18;;;;;;;;;;4979611;28;20480;-72
2021/08/22 11:45:12;;;;;;;14.98;5.32;;;;;;;;;;4980986;28;20124;-71
2021/08/22 11:47:39;;;;;;;17.83;5.00;;;;;;;;;;4980719;28;20057;-71
2021/08/22 11:50:06;;;;;;;10.57;4.10;;;;;;;;;;4992876;28;20054;-71
2021/08/22 11:52:33;;;;;;;9.85;4.43;;;;;;;;;;4986610;28;20102;-71
2021/08/22 11:54:59;;;;;;;7.90;4.95;;;;;;;;;;4992425;28;20691;-71
2021/08/22 11:57:28;;;;;;;10.48;5.40;;;;;;;;;;4995741;28;20449;-71
2021/08/22 12:00:13;;;;;;;9.98;5.50;;;;;;;;;;4988403;28;20026;-71
2021/08/22 12:02:40;;;;;;;7.93;5.20;;;;;;;;;;4984903;28;20035;-70
2021/08/22 12:05:22;;;;;;;14.35;6.00;;;;;;;;;;4988218;28;20046;-73
2021/08/22 12:07:49;;;;;;;10.15;5.88;;;;;;;;;;4986590;28;20125;-71
2021/08/22 12:10:22;;;;;;;9.43;5.97;;;;;;;;;;4984749;28;20393;-71
2021/08/22 12:12:48;;;;;;;8.20;5.40;;;;;;;;;;4980544;28;20049;-71
2021/08/22 12:15:15;;;;;;;13.18;5.85;;;;;;;;;;4985637;28;20101;-71
2021/08/22 12:17:41;;;;;;;10.52;6.25;;;;;;;;;;4991681;28;20454;-71
2021/08/22 12:20:36;;;;;;;10.73;5.88;;;;;;;;;;4987537;28;20043;-72
2021/08/22 12:23:03;;;;;;;17.45;6.43;;;;;;;;;;4983001;28;20038;-72
2021/08/22 12:25:29;;;;;;;13.95;6.22;;;;;;;;;;4989842;28;20050;-72
2021/08/22 12:27:55;;;;;;;11.60;6.03;;;;;;;;;;4987447;28;20049;-72
2021/08/22 12:30:32;;;;;;;14.30;6.00;;;;;;;;;;4993044;28;20476;-72
2021/08/22 12:32:58;;;;;;;11.13;5.75;;;;;;;;;;4989517;28;20109;-72
2021/08/22 12:35:25;;;;;;;10.30;5.38;;;;;;;;;;4977373;28;20395;-72
2021/08/22 12:37:51;;;;;;;12.73;6.47;;;;;;;;;;4990939;28;20217;-71
2021/08/22 12:40:23;;;;;;;8.90;6.57;;;;;;;;;;4990881;28;20033;-71
2021/08/22 12:42:49;;;;;;;9.15;5.90;;;;;;;;;;4978926;28;20030;-72
2021/08/22 12:45:15;;;;;;;7.43;5.38;;;;;;;;;;4978025;28;20027;-72
2021/08/22 12:47:41;;;;;;;10.75;5.60;;;;;;;;;;4979887;28;20030;-72
2021/08/22 12:50:08;;;;;;;10.05;6.05;;;;;;;;;;4980351;28;20679;-72
2021/08/22 12:52:36;;;;;;;9.32;5.43;;;;;;;;;;4984604;28;20041;-72
2021/08/22 12:55:02;;;;;;;10.18;6.07;;;;;;;;;;4977283;28;20069;-70
2021/08/22 12:57:28;;;;;;;8.65;5.82;;;;;;;;;;4983095;28;20095;-70
2021/08/22 12:59:54;;;;;;;9.82;6.25;;;;;;;;;;4983121;28;20029;-70
2021/08/22 13:02:20;;;;;;;9.57;6.05;;;;;;;;;;4986559;28;20034;-71
2021/08/22 13:04:46;;;;;;;10.80;6.15;;;;;;;;;;4982076;28;20046;-69
2021/08/22 13:07:12;;;;;;;10.98;7.00;;;;;;;;;;4990388;28;20057;-70
2021/08/22 13:09:37;;;;;;;9.77;6.57;;;;;;;;;;4986638;28;20034;-69
2021/08/22 13:12:03;;;;;;;9.35;6.95;;;;;;;;;;4988374;28;20031;-71
2021/08/22 13:14:29;;;;;;;8.70;6.78;;;;;;;;;;4985170;28;20022;-71
2021/08/22 13:16:55;;;;;;;10.75;6.97;;;;;;;;;;4988285;28;20362;-70
2021/08/22 13:19:21;;;;;;;11.52;6.57;;;;;;;;;;4991205;28;20109;-69
2021/08/22 13:21:54;;;;;;;10.50;6.45;;;;;;;;;;4989560;28;20629;-69
2021/08/22 13:24:20;;;;;;;9.02;6.30;;;;;;;;;;4982671;28;20113;-69
2021/08/22 13:26:46;;;;;;;12.02;6.60;;;;;;;;;;4988994;28;20117;-70
2021/08/22 13:29:11;;;;;;;9.43;6.28;;;;;;;;;;4988083;28;20031;-69
2021/08/22 13:31:37;;;;;;;11.35;6.47;;;;;;;;;;4983368;28;20030;-69
2021/08/22 13:34:05;;;;;;;7.85;6.10;;;;;;;;;;4984179;28;20117;-69
2021/08/22 13:36:31;;;;;;;8.63;5.65;;;;;;;;;;4984228;28;20054;-69
2021/08/22 13:38:57;;;;;;;9.18;5.50;;;;;;;;;;4980205;28;20501;-69
2021/08/22 13:41:22;;;;;;;8.02;5.93;;;;;;;;;;4988854;28;20070;-72
2021/08/22 13:43:48;;;;;;;11.88;5.25;;;;;;;;;;4987407;28;20042;-72
2021/08/22 13:46:14;;;;;;;7.65;5.70;;;;;;;;;;4988458;28;20030;-72
2021/08/22 13:48:40;;;;;;;8.38;6.05;;;;;;;;;;4994798;28;20034;-72
2021/08/22 13:51:06;;;;;;;9.50;5.90;;;;;;;;;;4990029;28;20141;-72
2021/08/22 13:53:32;;;;;;;9.45;5.68;;;;;;;;;;4992273;28;20049;-72
2021/08/22 13:55:58;;;;;;;9.40;5.72;;;;;;;;;;4989963;28;20492;-72
2021/08/22 13:58:24;;;;;;;8.70;5.35;;;;;;;;;;4990459;28;20022;-72
2021/08/22 14:00:50;;;;;;;9.50;5.45;;;;;;;;;;4980607;28;20022;-72
2021/08/22 14:03:16;;;;;;;6.95;4.93;;;;;;;;;;4988645;28;20078;-71
2021/08/22 14:05:42;;;;;;;6.63;4.97;;;;;;;;;;4986017;28;20041;-70
2021/08/22 14:08:08;;;;;;;8.43;4.60;;;;;;;;;;4992752;28;20034;-70
2021/08/22 14:10:34;;;;;;;6.65;4.97;;;;;;;;;;4983171;28;20030;-70
2021/08/22 14:12:59;;;;;;;8.57;4.85;;;;;;;;;;4984862;28;20539;-71
2021/08/22 14:15:26;;;;;;;8.23;4.90;;;;;;;;;;4982413;28;20054;-71
2021/08/22 14:17:55;;;;;;;6.40;4.55;;;;;;;;;;4989935;28;20029;-71
2021/08/22 14:20:21;;;;;;;9.00;5.15;;;;;;;;;;4989076;28;20026;-71
2021/08/22 14:22:49;;;;;;;7.45;4.47;;;;;;;;;;4980571;28;20437;-72
2021/08/22 14:25:15;;;;;;;8.00;4.97;;;;;;;;;;4984298;28;20085;-72
2021/08/22 14:27:41;;;;;;;8.07;4.57;;;;;;;;;;4989641;28;20030;-72
2021/08/22 14:30:07;;;;;;;6.20;4.93;;;;;;;;;;4988029;28;20762;-72
2021/08/22 14:32:36;;;;;;;6.85;4.82;;;;;;;;;;4986355;28;20117;-72
2021/08/22 14:35:03;;;;;;;6.20;4.57;;;;;;;;;;4987296;28;20392;-72
2021/08/22 14:37:29;;;;;;;7.43;4.45;;;;;;;;;;4975939;28;20033;-72
2021/08/22 14:39:55;;;;;;;7.78;4.47;;;;;;;;;;4988692;28;20019;-72
2021/08/22 14:42:22;;;;;;;5.53;4.13;;;;;;;;;;4988201;28;20037;-72
2021/08/22 14:44:48;;;;;;;7.68;4.43;;;;;;;;;;4987533;28;20019;-72
2021/08/22 14:47:14;;;;;;;6.63;4.88;;;;;;;;;;4988843;28;20672;-73
2021/08/22 14:49:40;;;;;;;6.28;4.53;;;;;;;;;;4986914;28;20030;-72